Etusivu
METAR-TAF:

METAR-TAF

Lentoasemat :

Adolfo Suárezin Barajasin Madridin kansainvälinen lentoasema

Madrid, Espanja

Leveyspiiri: 40-27N, Pituuspiiri: 003-33W, korkeus merenpinnasta: 609 m

Tämänhetkinen sää

Tämä raportti tehtiin 17 minuuttia sitten, kello 10.30 UTC
Tuuli 6 kn pohjoisesta/koillisesta, vaihdellen pohjoisen ja idän/koillisen välillä
Lämpötila 9°C
Kosteus 66%
Ilmanpaine 1032 hPa
Näkyvyys 10 km tai enemmän
Hajonneita pilviä 5000 ft:n korkeudessa

METAR: LEMD 181030Z 03006KT 350V070 9999 BKN050 09/03 Q1032 NOSIG

Aika: 11:47 (10:47 UTC)

Sääennuste

Tämä raportti tehtiin 5 tuntia ja 47 minuuttia sitten, kello 05.00 UTC
Ennuste voimassa 18. päivästä klo 06 UTC - 19. päivään klo 12 UTC
Tuuli 8 kn pohjoisesta/koillisesta
Näkyvyys 10 km tai enemmän
ei pilviä alle 1500 m:ssä eikä cumulonimbus-pilviä

TAF: LEMD 180500Z 1806/1912 02008KT CAVOK TX14/1815Z TN02/1906Z

Säähavainnot ja -ennusteet yli 4000 lentoasemalta (METAR- ja TAF-raportit).

Käytössä olevat sääasemat on merkitty karttaan keltaisilla ja punaisilla pisteillä.

Aseta hiiri pisteen päälle nähdäksesi sääaseman nimen.

Klikkaa sitten nähdäksesi säähavainnot ja -ennusteet.

Kartan vaihtaminen: klikkaa mustalla rastilla varustettuja vihreitä pisteitä, niin voit zoomata sisään; viivalla varustettua vihreää pistettä, niin voit zoomata ulos tai vihreitä nuolia, niin pääset viereisille kartoille.


METAR-TAF: